Time;durP1;ratioP1;P1;durP2;ratioP2;P2;SDS_P1;SDS_P2;PMS_P1;PMS_P2;Temp;Humidity;BMP_temperature;BMP_pressure;BME280_temperature;BME280_humidity;BME280_pressure;Samples;Min_cycle;Max_cycle;Signal;HPM_P1;HPM_P2
2022/10/04 00:02:34;;;;;;;35.95;18.95;;;;;;;28.12;60.72;98365.41;4875934;29;20597;-74
2022/10/04 00:05:26;;;;;;;32.72;18.30;;;;;;;28.12;61.31;98372.88;4875342;29;20057;-75
2022/10/04 00:08:24;;;;;;;33.22;18.52;;;;;;;28.11;61.02;98368.53;4875616;29;20777;-74
2022/10/04 00:11:13;;;;;;;37.22;18.70;;;;;;;28.08;60.66;98375.50;4874677;29;20132;-74
2022/10/04 00:14:09;;;;;;;33.33;18.10;;;;;;;28.06;61.02;98377.00;4874250;29;20116;-74
2022/10/04 00:16:59;;;;;;;37.75;19.08;;;;;;;28.04;60.66;98384.81;4874366;29;20095;-74
2022/10/04 00:19:49;;;;;;;32.10;18.90;;;;;;;27.94;60.44;98388.00;4874636;29;20048;-74
2022/10/04 00:22:40;;;;;;;31.98;17.38;;;;;;;27.93;60.52;98389.91;4870582;29;20052;-74
2022/10/04 00:25:33;;;;;;;37.50;20.00;;;;;;;27.98;60.17;98386.97;4889694;29;20708;-74
2022/10/04 00:28:26;;;;;;;43.67;19.02;;;;;;;27.87;60.60;98391.25;4875416;29;20080;-74
2022/10/04 00:31:15;;;;;;;33.75;18.23;;;;;;;27.91;60.49;98393.00;4873296;29;20052;-71
2022/10/04 00:34:10;;;;;;;40.80;18.05;;;;;;;27.85;60.97;98397.09;4856599;29;20141;-74
2022/10/04 00:36:59;;;;;;;32.38;17.35;;;;;;;27.86;61.16;98400.66;4856973;29;20053;-74
2022/10/04 00:39:52;;;;;;;34.58;18.00;;;;;;;27.81;60.63;98400.88;4873930;29;20125;-74
2022/10/04 00:43:15;;;;;;;33.03;17.63;;;;;;;27.92;60.51;98396.59;4872403;29;20128;-74
2022/10/04 00:46:10;;;;;;;36.70;17.42;;;;;;;27.86;60.36;98401.47;4862608;29;20069;-74
2022/10/04 00:49:03;;;;;;;31.50;16.65;;;;;;;27.95;60.29;98408.91;4855184;29;20050;-74
2022/10/04 00:52:13;;;;;;;33.10;16.50;;;;;;;27.87;59.84;98414.09;4854984;29;20049;-74
2022/10/04 00:54:59;;;;;;;30.73;17.27;;;;;;;27.91;60.30;98417.81;4868903;29;20160;-74
2022/10/04 00:57:53;;;;;;;34.60;18.10;;;;;;;27.90;59.96;98412.66;4872995;29;20344;-74
2022/10/04 01:00:43;;;;;;;32.33;16.92;;;;;;;27.87;60.29;98411.34;4874886;29;20049;-74
2022/10/04 01:03:49;;;;;;;38.60;18.60;;;;;;;27.94;60.12;98412.81;4874091;29;20393;-74
2022/10/04 01:06:26;;;;;;;33.03;17.85;;;;;;;27.92;60.30;98421.41;4873431;29;20053;-74
2022/10/04 01:09:17;;;;;;;32.08;17.40;;;;;;;28.00;60.23;98417.78;4874019;29;20053;-74
2022/10/04 01:12:14;;;;;;;39.83;19.25;;;;;;;28.05;60.17;98416.75;4874543;29;20545;-74
2022/10/04 01:15:32;;;;;;;37.53;17.75;;;;;;;28.07;59.70;98417.22;4874580;29;20057;-74
2022/10/04 01:18:41;;;;;;;31.90;17.80;;;;;;;28.17;59.80;98422.34;4859741;29;20156;-74
2022/10/04 01:21:31;;;;;;;42.08;18.60;;;;;;;28.08;59.79;98419.66;4856974;29;20907;-73
2022/10/04 01:24:27;;;;;;;36.28;18.83;;;;;;;28.12;59.41;98425.28;4874169;29;20061;-74
2022/10/04 01:27:46;;;;;;;41.13;17.45;;;;;;;28.22;59.37;98430.41;4857424;29;20381;-73
2022/10/04 01:30:21;;;;;;;50.38;19.65;;;;;;;28.18;59.07;98426.69;4873711;29;20057;-74
2022/10/04 01:33:12;;;;;;;43.17;19.10;;;;;;;28.21;59.94;98428.00;4874003;29;20124;-73
2022/10/04 01:36:01;;;;;;;42.47;20.05;;;;;;;28.23;58.75;98431.22;4874199;29;20489;-74
2022/10/04 01:38:50;;;;;;;42.75;18.17;;;;;;;28.33;59.48;98433.56;4872750;29;20049;-73
2022/10/04 01:41:45;;;;;;;45.90;19.98;;;;;;;28.39;60.04;98436.91;4873749;29;20045;-73
2022/10/04 01:44:41;;;;;;;37.67;18.23;;;;;;;28.46;59.85;98434.41;4872628;29;20144;-73
2022/10/04 01:47:50;;;;;;;41.38;18.77;;;;;;;28.46;59.72;98437.19;4873748;29;20064;-73
2022/10/04 01:50:46;;;;;;;40.00;18.73;;;;;;;28.54;58.90;98446.56;4873625;29;20701;-73
2022/10/04 01:53:35;;;;;;;44.17;18.88;;;;;;;28.59;59.56;98441.63;4872537;29;20049;-73
2022/10/04 01:56:29;;;;;;;35.92;17.92;;;;;;;28.70;58.98;98445.56;4873380;29;20108;-73
2022/10/04 01:59:13;;;;;;;44.28;18.42;;;;;;;28.75;58.56;98444.53;4873620;29;20057;-73
2022/10/04 02:02:30;;;;;;;38.67;17.00;;;;;;;28.83;58.30;98448.34;4873215;29;20076;-73
2022/10/04 02:05:17;;;;;;;42.28;17.90;;;;;;;28.91;58.23;98453.00;4855089;29;20444;-73
2022/10/04 02:08:19;;;;;;;33.45;15.73;;;;;;;28.97;58.51;98456.31;4855840;29;20076;-73
2022/10/04 02:10:56;;;;;;;42.88;17.13;;;;;;;29.02;56.90;98462.44;4868823;29;20057;-73
2022/10/04 02:13:49;;;;;;;46.50;15.85;;;;;;;29.04;57.93;98459.31;4872412;29;20157;-73
2022/10/04 02:16:32;;;;;;;36.70;15.75;;;;;;;29.11;57.98;98456.00;4872592;29;20048;-73
2022/10/04 02:19:32;;;;;;;43.00;17.02;;;;;;;29.19;58.53;98460.66;4872882;29;20064;-72
2022/10/04 02:22:23;;;;;;;42.33;16.60;;;;;;;29.26;57.86;98460.91;4872781;29;20607;-72
2022/10/04 02:25:05;;;;;;;;;;;;;;;29.37;59.31;98467.59;4873402;29;20057;-72
2022/10/04 02:27:59;;;;;;;33.05;15.52;;;;;;;29.41;60.01;98462.97;4854299;29;19988;-72
2022/10/04 02:33:55;;;;;;;35.78;15.93;;;;;;;29.59;57.88;98474.59;4872965;29;20063;-73
2022/10/04 02:36:51;;;;;;;39.97;16.73;;;;;;;29.73;56.68;98474.28;4872688;29;20625;-72
2022/10/04 02:39:34;;;;;;;36.70;15.93;;;;;;;29.81;56.55;98475.31;4867617;29;20049;-72
2022/10/04 02:42:26;;;;;;;39.00;16.23;;;;;;;29.94;55.33;98470.56;4853868;29;20060;-70
2022/10/04 02:45:51;;;;;;;33.83;15.13;;;;;;;30.10;55.89;98467.88;4852964;29;20049;-71
2022/10/04 02:48:57;;;;;;;42.47;14.65;;;;;;;30.42;52.47;98482.66;4871921;29;20446;-73
2022/10/04 02:51:43;;;;;;;38.28;13.57;;;;;;;30.57;50.58;98481.94;4870831;29;20151;-73
2022/10/04 02:55:04;;;;;;;42.38;13.63;;;;;;;30.58;52.00;98486.31;4853248;29;20049;-73
2022/10/04 02:57:42;;;;;;;46.08;13.45;;;;;;;30.75;50.92;98481.63;4856215;29;20048;-73
2022/10/04 03:00:38;;;;;;;36.92;13.23;;;;;;;30.79;49.98;98476.97;4888607;28;20052;-73
2022/10/04 03:03:27;;;;;;;41.05;13.40;;;;;;;30.94;49.54;98487.31;4890604;29;20809;-73
2022/10/04 03:06:20;;;;;;;37.22;12.35;;;;;;;30.96;51.21;98490.53;4880457;29;20064;-73
2022/10/04 03:09:09;;;;;;;28.35;11.77;;;;;;;31.05;51.86;98490.38;4890364;29;20090;-72
2022/10/04 03:11:51;;;;;;;30.17;12.70;;;;;;;31.04;51.86;98485.97;4873481;29;20060;-73
2022/10/04 03:14:47;;;;;;;34.92;13.00;;;;;;;31.19;51.93;98495.47;4872148;29;20049;-73
2022/10/04 03:17:22;;;;;;;30.85;12.85;;;;;;;31.22;54.14;98494.75;4877300;29;20056;-73
2022/10/04 03:20:19;;;;;;;33.25;12.52;;;;;;;31.31;51.59;98494.59;4890393;29;20056;-73
2022/10/04 03:23:03;;;;;;;34.67;12.25;;;;;;;31.44;49.95;98493.34;4872001;29;20048;-73
2022/10/04 03:26:03;;;;;;;35.17;13.05;;;;;;;31.54;48.59;98497.56;4857677;29;20132;-73
2022/10/04 03:28:46;;;;;;;29.00;12.00;;;;;;;31.57;50.91;98505.97;4871966;29;20068;-73
2022/10/04 03:31:47;;;;;;;69.47;15.30;;;;;;;31.56;49.05;98506.31;4871869;29;20480;-73
2022/10/04 03:34:46;;;;;;;57.70;14.85;;;;;;;31.75;50.41;98509.16;4866274;29;20135;-73
2022/10/04 03:37:37;;;;;;;44.22;14.73;;;;;;;31.78;50.46;98514.00;4876810;29;20668;-73
2022/10/04 03:40:30;;;;;;;26.92;12.93;;;;;;;31.73;49.43;98517.03;4890229;29;20730;-72
2022/10/04 03:43:23;;;;;;;31.88;14.30;;;;;;;31.93;47.53;98525.41;4890164;29;20144;-73
2022/10/04 03:46:08;;;;;;;44.60;15.30;;;;;;;31.78;47.38;98524.31;4874168;29;20108;-73
2022/10/04 03:48:57;;;;;;;39.13;15.30;;;;;;;32.08;47.39;98532.13;4889399;29;20076;-73
2022/10/04 03:51:41;;;;;;;43.22;17.00;;;;;;;32.19;46.83;98533.97;4873960;29;20056;-73
2022/10/04 03:54:32;;;;;;;31.48;14.95;;;;;;;32.12;47.60;98533.03;4889356;29;20112;-72
2022/10/04 03:57:22;;;;;;;39.90;18.90;;;;;;;32.25;46.35;98533.72;4890098;29;20064;-72
2022/10/04 04:00:05;;;;;;;33.53;17.05;;;;;;;32.52;48.06;98534.69;4872345;29;20055;-73
2022/10/04 04:02:57;;;;;;;41.83;18.42;;;;;;;32.77;45.69;98541.59;4871807;29;20116;-72
2022/10/04 04:05:56;;;;;;;64.82;25.48;;;;;;;32.73;46.28;98545.47;4855139;29;20060;-72
2022/10/04 04:08:49;;;;;;;62.05;28.40;;;;;;;33.02;47.03;98546.84;4871024;29;20636;-72
2022/10/04 04:11:31;;;;;;;81.82;32.53;;;;;;;33.31;45.18;98548.19;4854760;29;20045;-73
2022/10/04 04:14:26;;;;;;;67.15;33.17;;;;;;;33.57;46.85;98546.63;4872928;29;20057;-73
2022/10/04 04:17:26;;;;;;;88.55;39.63;;;;;;;33.78;44.36;98553.75;4841413;29;20053;-72
2022/10/04 04:20:40;;;;;;;90.20;41.42;;;;;;;34.07;48.48;98549.41;4869055;29;20112;-72
2022/10/04 04:23:44;;;;;;;86.03;37.80;;;;;;;34.10;43.31;98549.47;4862040;29;20048;-72
2022/10/04 04:26:49;;;;;;;73.50;31.80;;;;;;;34.33;44.38;98548.63;4871874;29;20128;-71
2022/10/04 04:29:43;;;;;;;64.53;28.73;;;;;;;34.57;43.31;98549.31;4868815;29;20052;-71
2022/10/04 04:32:44;;;;;;;52.90;23.83;;;;;;;34.96;42.51;98549.03;4871229;29;20109;-71
2022/10/04 04:35:35;;;;;;;54.07;19.63;;;;;;;35.15;40.38;98554.41;4874975;29;20139;-71
2022/10/04 04:38:29;;;;;;;29.67;15.15;;;;;;;35.19;41.56;98557.28;4874527;29;20148;-71
2022/10/04 04:41:11;;;;;;;28.55;13.80;;;;;;;35.22;39.32;98548.16;4858315;29;20401;-71
2022/10/04 04:44:00;;;;;;;31.63;13.15;;;;;;;35.36;41.26;98553.06;4858498;29;20049;-71
2022/10/04 04:46:49;;;;;;;31.48;12.90;;;;;;;35.65;39.60;98545.72;4860065;29;20097;-72
2022/10/04 04:49:39;;;;;;;34.13;12.00;;;;;;;35.99;38.55;98554.78;4873039;29;20049;-72
2022/10/04 04:52:30;;;;;;;28.02;12.85;;;;;;;36.12;40.62;98548.91;4841821;29;20528;-70
2022/10/04 04:55:27;;;;;;;26.92;12.48;;;;;;;36.28;39.57;98548.63;4855982;29;20806;-73
2022/10/04 04:58:40;;;;;;;29.92;11.85;;;;;;;36.57;40.80;98552.34;4855921;29;20064;-74
2022/10/04 05:01:48;;;;;;;33.47;12.13;;;;;;;36.62;37.87;98549.97;4854732;29;20050;-73
2022/10/04 05:04:25;;;;;;;33.58;12.93;;;;;;;36.19;38.16;98551.75;4840345;29;20117;-73
2022/10/04 05:07:23;;;;;;;;;;;;;;;37.15;37.75;98554.19;4857972;29;20090;-73
2022/10/04 05:09:58;;;;;;;25.10;11.10;;;;;;;36.81;36.44;98551.69;4873806;29;19924;-73
2022/10/04 05:12:55;;;;;;;38.35;14.85;;;;;;;36.97;38.80;98556.13;4873589;29;20053;-73
2022/10/04 05:15:40;;;;;;;54.80;18.33;;;;;;;37.38;39.34;98559.44;4876161;29;20060;-74
2022/10/04 05:18:32;;;;;;;52.45;18.27;;;;;;;37.36;39.43;98553.44;4875395;29;20417;-72
2022/10/04 05:21:31;;;;;;;35.95;18.27;;;;;;;37.81;37.35;98550.25;4892231;29;20057;-72
2022/10/04 05:24:39;;;;;;;44.47;17.88;;;;;;;36.89;38.18;98548.91;4878697;29;20056;-72
2022/10/04 05:27:19;;;;;;;38.72;17.65;;;;;;;36.90;37.73;98547.69;4876168;29;20052;-70
2022/10/04 05:30:59;;;;;;;51.22;17.13;;;;;;;37.40;39.41;98550.66;4892442;29;20052;-70
2022/10/04 05:34:04;;;;;;;44.25;17.13;;;;;;;36.95;40.25;98553.72;4892511;29;20048;-71
2022/10/04 05:37:24;;;;;;;40.05;16.20;;;;;;;36.73;37.80;98546.47;4892375;29;20061;-72
2022/10/04 05:40:37;;;;;;;38.00;17.45;;;;;;;37.41;36.67;98544.66;4779552;29;20607;-72
2022/10/04 05:43:35;;;;;;;42.70;17.83;;;;;;;37.13;36.92;98539.81;4786610;29;20488;-70
2022/10/04 05:46:36;;;;;;;45.15;16.60;;;;;;;37.02;38.46;98536.94;4873281;29;20061;-72
2022/10/04 05:49:21;;;;;;;47.90;18.15;;;;;;;37.40;38.33;98539.44;4873134;29;20109;-71
2022/10/04 05:52:39;;;;;;;37.17;14.73;;;;;;;37.67;37.76;98536.28;4872703;29;20472;-70
2022/10/04 05:55:16;;;;;;;34.88;14.98;;;;;;;36.90;36.35;98536.50;4872803;29;20064;-71
2022/10/04 05:58:35;;;;;;;42.20;14.68;;;;;;;37.66;38.80;98529.84;4861722;29;20744;-73
2022/10/04 06:01:24;;;;;;;47.40;12.90;;;;;;;37.42;39.02;98531.44;4848151;29;20152;-74
2022/10/04 06:04:34;;;;;;;35.28;11.20;;;;;;;37.10;37.67;98520.19;4891197;29;20373;-72
2022/10/04 06:07:36;;;;;;;25.23;10.85;;;;;;;37.64;39.85;98520.28;4890533;29;20052;-74
2022/10/04 06:11:02;;;;;;;34.03;10.98;;;;;;;37.51;38.06;98512.25;4874402;29;20052;-75
2022/10/04 06:14:29;;;;;;;27.00;10.27;;;;;;;37.39;37.42;98510.63;4889451;29;20060;-75
2022/10/04 06:17:20;;;;;;;27.10;10.35;;;;;;;37.46;36.10;98509.06;4890246;29;20060;-75
2022/10/04 06:20:29;;;;;;;23.83;10.63;;;;;;;37.56;37.08;98499.84;4888346;29;20132;-75
2022/10/04 06:23:20;;;;;;;24.55;9.10;;;;;;;37.29;36.30;98491.84;4889680;29;20068;-75
2022/10/04 06:26:19;;;;;;;30.45;9.88;;;;;;;37.01;36.67;98490.59;4890008;29;20492;-75
2022/10/04 06:29:07;;;;;;;30.73;8.55;;;;;;;37.07;36.57;98479.81;4892777;29;20120;-74
2022/10/04 06:31:56;;;;;;;30.75;8.45;;;;;;;37.37;36.09;98495.44;4890341;29;20740;-75
2022/10/04 06:34:40;;;;;;;30.98;9.38;;;;;;;37.22;36.21;98486.25;4891686;29;20567;-72
2022/10/04 06:37:54;;;;;;;25.95;8.70;;;;;;;37.08;35.91;98475.81;4890936;29;20140;-75
2022/10/04 06:40:48;;;;;;;47.38;14.52;;;;;;;36.77;35.34;98475.38;4891390;29;20052;-74
2022/10/04 06:44:35;;;;;;;29.65;11.85;;;;;;;36.66;36.34;98471.75;4891750;29;20079;-72
2022/10/04 06:48:27;;;;;;;29.55;9.82;;;;;;;37.03;36.41;98462.22;4796714;29;20445;-72
2022/10/04 06:51:13;;;;;;;32.85;11.32;;;;;;;36.81;35.64;98455.81;4812941;29;20087;-71
2022/10/04 06:54:26;;;;;;;32.67;11.60;;;;;;;36.73;36.04;98455.00;4891331;29;20108;-73
2022/10/04 06:57:36;;;;;;;33.53;12.43;;;;;;;36.74;35.82;98459.38;4875973;29;20060;-72
2022/10/04 07:00:35;;;;;;;39.63;13.57;;;;;;;36.96;36.62;98451.03;4890070;29;20406;-72
2022/10/04 07:03:39;;;;;;;34.72;14.45;;;;;;;37.06;37.45;98446.66;4890790;29;20053;-73
2022/10/04 07:06:33;;;;;;;28.92;13.70;;;;;;;37.20;36.55;98444.69;4890734;29;20159;-73
2022/10/04 07:09:33;;;;;;;40.80;15.02;;;;;;;37.32;37.08;98437.06;4890297;29;20500;-73
2022/10/04 07:12:16;;;;;;;52.05;15.93;;;;;;;37.31;38.44;98439.06;4888868;29;20048;-73
2022/10/04 07:15:23;;;;;;;42.80;15.13;;;;;;;37.13;37.78;98429.84;4889405;29;20052;-73
2022/10/04 07:18:21;;;;;;;29.55;13.70;;;;;;;37.15;37.97;98422.69;4869837;29;20048;-73
2022/10/04 07:21:25;;;;;;;33.85;10.85;;;;;;;36.97;35.79;98419.06;4889371;29;20499;-73
2022/10/04 07:24:19;;;;;;;34.53;12.80;;;;;;;37.25;36.42;98411.91;4888794;29;20053;-73
2022/10/04 07:27:02;;;;;;;34.70;13.48;;;;;;;36.94;36.47;98411.47;4891150;29;20071;-73
2022/10/04 07:29:58;;;;;;;37.10;13.18;;;;;;;37.18;36.32;98413.47;4888356;29;20124;-70
2022/10/04 07:32:49;;;;;;;33.45;13.18;;;;;;;37.01;37.35;98403.06;4888479;29;20116;-73
2022/10/04 07:35:50;;;;;;;37.95;12.75;;;;;;;37.22;37.18;98405.09;4870055;29;20053;-74
2022/10/04 07:38:37;;;;;;;32.03;11.30;;;;;;;37.46;36.39;98400.69;4882083;29;20465;-72
2022/10/04 07:41:50;;;;;;;28.15;9.43;;;;;;;37.36;35.39;98398.72;4887887;29;20048;-71
2022/10/04 07:44:42;;;;;;;37.53;11.13;;;;;;;37.23;36.00;98384.31;4887977;29;20132;-70
2022/10/04 07:47:32;;;;;;;31.38;10.98;;;;;;;37.04;36.42;98394.69;4886465;29;20163;-71
2022/10/04 07:50:33;;;;;;;27.23;11.63;;;;;;;37.17;37.42;98381.13;4885553;29;20052;-71
2022/10/04 07:53:30;;;;;;;30.13;12.32;;;;;;;37.02;38.46;98385.09;4886595;29;20048;-70
2022/10/04 07:56:26;;;;;;;23.80;12.40;;;;;;;36.68;37.30;98376.28;4870450;29;20056;-70
2022/10/04 07:59:44;;;;;;;22.85;10.57;;;;;;;36.79;36.46;98375.09;4885385;29;20535;-70
2022/10/04 08:03:03;;;;;;;32.22;11.55;;;;;;;37.16;37.86;98373.91;4866770;29;20048;-70
2022/10/04 08:06:00;;;;;;;29.20;10.85;;;;;;;36.87;34.81;98367.50;4851383;29;20049;-70
2022/10/04 08:09:15;;;;;;;26.80;10.45;;;;;;;36.92;34.03;98358.72;4854427;29;20144;-71
2022/10/04 08:12:31;;;;;;;34.97;11.43;;;;;;;36.94;35.57;98367.53;4853921;29;20460;-70
2022/10/04 08:15:13;;;;;;;22.80;8.75;;;;;;;36.95;35.10;98362.72;4854287;29;20084;-69
2022/10/04 08:18:17;;;;;;;25.77;8.55;;;;;;;37.04;36.84;98354.72;4872327;29;20100;-70
2022/10/04 08:21:00;;;;;;;19.30;7.88;;;;;;;36.63;34.27;98353.09;4862147;29;20064;-71
2022/10/04 08:24:02;;;;;;;23.25;7.38;;;;;;;36.73;33.38;98357.13;4859081;29;20053;-70
2022/10/04 08:27:10;;;;;;;18.20;7.05;;;;;;;36.85;33.91;98350.34;4864041;29;20045;-70
2022/10/04 08:30:21;;;;;;;22.33;6.60;;;;;;;36.89;32.64;98347.53;4864429;29;20048;-70
2022/10/04 08:33:17;;;;;;;11.38;5.80;;;;;;;36.84;32.18;98340.34;4864840;29;20049;-70
2022/10/04 08:36:32;;;;;;;19.83;8.07;;;;;;;36.23;33.76;98329.06;4875057;29;20060;-70
2022/10/04 08:39:50;;;;;;;18.00;7.22;;;;;;;36.64;33.73;98337.13;4873915;29;20061;-70
2022/10/04 08:42:48;;;;;;;19.95;7.53;;;;;;;36.27;32.70;98335.47;4875103;29;20045;-71
2022/10/04 08:46:08;;;;;;;15.65;7.00;;;;;;;36.72;34.06;98326.75;4872930;29;20132;-70
2022/10/04 08:49:05;;;;;;;11.88;5.72;;;;;;;36.38;32.39;98325.13;4874583;29;20335;-70
2022/10/04 08:52:22;;;;;;;14.77;5.97;;;;;;;36.48;31.54;98325.50;4875021;29;20056;-71
2022/10/04 08:55:42;;;;;;;12.50;6.13;;;;;;;36.79;32.67;98321.97;4816457;29;20130;-71
2022/10/04 08:58:50;;;;;;;24.33;6.68;;;;;;;36.57;31.51;98306.34;4873535;29;20085;-70
2022/10/04 09:02:05;;;;;;;10.75;5.70;;;;;;;36.61;32.15;98315.53;4892563;29;20067;-70
2022/10/04 09:05:39;;;;;;;24.23;6.43;;;;;;;36.58;32.18;98316.34;4893239;29;20063;-70
2022/10/04 09:08:49;;;;;;;20.00;6.20;;;;;;;36.39;32.51;98304.34;4892609;29;20052;-71
2022/10/04 09:11:40;;;;;;;24.83;6.85;;;;;;;36.30;33.37;98300.34;4893205;29;20056;-70
2022/10/04 09:14:41;;;;;;;24.40;6.72;;;;;;;36.47;33.25;98299.56;4891230;29;20063;-70
2022/10/04 09:17:50;;;;;;;17.52;7.18;;;;;;;36.40;33.32;98291.97;4889625;29;20052;-70
2022/10/04 09:20:48;;;;;;;13.68;6.63;;;;;;;36.69;34.10;98300.41;4890146;29;20703;-70
2022/10/04 09:23:30;;;;;;;16.55;6.50;;;;;;;36.57;32.25;98286.78;4890178;29;20053;-70
2022/10/04 09:26:32;;;;;;;11.23;6.20;;;;;;;36.27;32.94;98285.19;4890870;29;20048;-69
2022/10/04 09:29:40;;;;;;;13.32;5.95;;;;;;;36.20;33.00;98287.97;4890585;29;20067;-70
2022/10/04 09:32:34;;;;;;;13.77;5.72;;;;;;;36.31;32.43;98282.41;4890312;29;20112;-69
2022/10/04 09:36:06;;;;;;;20.20;5.80;;;;;;;36.28;32.90;98285.97;4891375;29;20468;-69
2022/10/04 09:39:21;;;;;;;14.95;5.50;;;;;;;36.40;34.18;98277.19;4890052;29;20707;-70
2022/10/04 09:42:50;;;;;;;13.65;5.43;;;;;;;36.25;32.71;98274.41;4891939;29;20080;-71
2022/10/04 09:45:43;;;;;;;15.85;5.80;;;;;;;35.93;31.87;98273.50;4521682;29;10001369;-70
2022/10/04 09:49:08;;;;;;;16.85;6.30;;;;;;;36.25;31.54;98270.81;4872214;29;20105;-71
2022/10/04 09:52:00;;;;;;;16.67;5.65;;;;;;;36.52;32.19;98262.84;4874496;29;20055;-72
2022/10/04 09:55:40;;;;;;;14.38;5.30;;;;;;;36.22;30.59;98257.63;4892465;29;20143;-69
2022/10/04 09:58:21;;;;;;;16.92;6.10;;;;;;;36.40;31.91;98255.66;4833112;29;20066;-71
2022/10/04 10:01:41;;;;;;;27.92;6.85;;;;;;;36.53;32.47;98258.03;4890791;29;20717;-72
2022/10/04 10:04:43;;;;;;;35.00;6.30;;;;;;;36.51;32.77;98249.25;4878811;29;20512;-70
2022/10/04 10:08:14;;;;;;;15.90;5.90;;;;;;;36.48;32.05;98250.03;4889250;29;20052;-72
2022/10/04 10:14:55;;;;;;;30.27;6.68;;;;;;;36.28;32.43;98242.06;4869996;29;20132;-71
2022/10/04 10:17:40;;;;;;;27.13;7.82;;;;;;;36.31;32.63;98232.09;4870403;29;20059;-70
2022/10/04 10:20:58;;;;;;;21.77;7.05;;;;;;;36.12;35.75;98236.03;4883088;29;20139;-74
2022/10/04 10:23:54;;;;;;;14.93;6.50;;;;;;;35.86;32.55;98237.97;4889871;29;20389;-73
2022/10/04 10:27:10;;;;;;;15.48;6.78;;;;;;;35.34;32.96;98234.59;4881545;29;20079;-72
2022/10/04 10:30:03;;;;;;;14.90;5.93;;;;;;;35.63;32.09;98229.91;4890962;29;20063;-72
2022/10/04 10:33:19;;;;;;;18.95;7.03;;;;;;;35.55;34.71;98225.50;4890096;29;20144;-72
2022/10/04 10:36:23;;;;;;;15.60;8.57;;;;;;;35.55;33.84;98223.50;4890073;29;20139;-72
2022/10/04 10:39:47;;;;;;;28.20;9.05;;;;;;;35.43;34.94;98227.44;4888452;29;20052;-72
2022/10/04 10:42:50;;;;;;;23.80;8.43;;;;;;;35.46;35.10;98228.66;4872995;29;20057;-73
2022/10/04 10:45:55;;;;;;;27.73;11.82;;;;;;;35.44;34.65;98225.44;4872992;29;20045;-72
2022/10/04 10:49:01;;;;;;;26.40;11.38;;;;;;;35.51;35.73;98224.69;4884503;29;20465;-72
2022/10/04 10:52:09;;;;;;;26.17;11.10;;;;;;;35.45;35.44;98225.06;4873536;29;20083;-72
2022/10/04 10:55:01;;;;;;;21.23;12.02;;;;;;;35.20;36.84;98218.59;4857414;29;20060;-72
2022/10/04 10:58:08;;;;;;;27.15;11.40;;;;;;;35.14;36.48;98212.56;4872274;29;20064;-72
2022/10/04 11:01:25;;;;;;;29.67;12.23;;;;;;;35.09;36.85;98213.69;4862532;29;20374;-72
2022/10/04 11:04:38;;;;;;;25.30;11.95;;;;;;;35.24;38.89;98217.41;4853693;29;20461;-71
2022/10/04 11:08:03;;;;;;;24.23;12.05;;;;;;;35.14;39.00;98218.13;4852292;29;20061;-72
2022/10/04 11:11:13;;;;;;;28.27;11.68;;;;;;;35.09;38.50;98207.34;4854522;29;20068;-71
2022/10/04 11:14:32;;;;;;;32.40;13.98;;;;;;;35.04;38.57;98204.91;4867859;29;20359;-71
2022/10/04 11:17:35;;;;;;;29.63;12.25;;;;;;;35.19;39.07;98212.19;4871526;29;20119;-71
2022/10/04 11:20:58;;;;;;;32.22;12.52;;;;;;;35.17;39.93;98205.38;4855560;29;20055;-71
2022/10/04 11:23:54;;;;;;;25.75;11.57;;;;;;;34.86;38.74;98202.81;4857077;29;20057;-72
2022/10/04 11:27:18;;;;;;;22.65;10.80;;;;;;;34.78;38.07;98209.56;4875127;29;20049;-72
2022/10/04 11:30:08;;;;;;;24.23;10.77;;;;;;;34.86;37.93;98210.41;4871733;29;20068;-72
2022/10/04 11:33:30;;;;;;;22.90;10.10;;;;;;;34.87;38.04;98211.97;4872045;29;20067;-71
2022/10/04 11:36:45;;;;;;;23.85;9.63;;;;;;;34.85;37.54;98214.34;4871978;29;20064;-71
2022/10/04 11:39:55;;;;;;;26.38;10.05;;;;;;;34.73;38.47;98212.69;4853294;29;20844;-71
2022/10/04 11:42:37;;;;;;;25.15;10.05;;;;;;;34.66;38.61;98207.84;4854294;29;20680;-72
2022/10/04 11:45:32;;;;;;;25.17;10.27;;;;;;;34.58;38.96;98217.34;4857768;29;20053;-71
2022/10/04 11:48:34;;;;;;;23.75;10.25;;;;;;;34.51;40.06;98212.53;4856684;29;20062;-71
2022/10/04 11:51:46;;;;;;;20.73;9.98;;;;;;;34.31;42.28;98214.72;4856974;29;20125;-73
2022/10/04 11:54:58;;;;;;;24.17;10.35;;;;;;;34.10;42.98;98220.88;4857408;29;20439;-72
2022/10/04 11:58:31;;;;;;;22.20;10.23;;;;;;;34.14;43.06;98215.34;4856297;29;20910;-73
2022/10/04 12:02:01;;;;;;;27.45;11.07;;;;;;;34.01;42.02;98217.59;4864271;29;20060;-70
2022/10/04 12:05:40;;;;;;;21.60;10.35;;;;;;;33.97;42.92;98204.84;4857424;29;20128;-73
2022/10/04 12:08:42;;;;;;;27.40;10.35;;;;;;;34.08;43.19;98209.31;4856644;29;20054;-72
2022/10/04 12:15:38;;;;;;;26.38;9.35;;;;;;;34.00;42.78;98209.66;4856695;29;20331;-72
2022/10/04 12:18:46;;;;;;;34.85;10.55;;;;;;;34.00;42.86;98216.03;4856139;29;20061;-71
2022/10/04 12:21:39;;;;;;;26.75;10.40;;;;;;;34.04;43.88;98208.50;4856326;29;20053;-73
2022/10/04 12:25:06;;;;;;;29.45;10.57;;;;;;;33.98;44.02;98214.81;4874569;29;20057;-72
2022/10/04 12:28:12;;;;;;;26.50;10.20;;;;;;;33.84;45.85;98207.09;4857834;29;20057;-73
2022/10/04 12:31:21;;;;;;;27.48;12.55;;;;;;;33.76;46.20;98216.56;4870203;29;20061;-72
2022/10/04 12:34:18;;;;;;;38.20;12.68;;;;;;;33.67;46.10;98216.84;4517827;29;10001079;-71
2022/10/04 12:37:52;;;;;;;39.45;10.55;;;;;;;33.70;44.80;98211.31;4856615;29;20068;-71
2022/10/04 12:41:10;;;;;;;34.22;11.27;;;;;;;33.62;44.97;98211.63;4814187;29;20837;-74
2022/10/04 12:44:11;;;;;;;28.65;10.57;;;;;;;33.50;44.69;98209.91;4872262;29;20124;-71
2022/10/04 12:47:03;;;;;;;35.25;10.82;;;;;;;33.50;44.61;98218.25;4871674;29;20057;-72
2022/10/04 12:50:21;;;;;;;23.55;10.05;;;;;;;33.34;43.85;98215.66;4871878;29;20369;-70
2022/10/04 12:53:34;;;;;;;26.48;10.38;;;;;;;33.45;45.07;98213.00;4864463;29;20053;-69
2022/10/04 12:56:52;;;;;;;27.88;10.50;;;;;;;33.44;45.82;98217.78;4868186;29;20052;-73
2022/10/04 12:59:39;;;;;;;28.50;10.32;;;;;;;33.35;46.16;98218.06;4853657;29;20053;-72
2022/10/04 13:02:44;;;;;;;27.17;9.90;;;;;;;33.23;46.78;98215.53;4871545;29;20061;-72
2022/10/04 13:05:30;;;;;;;23.63;9.15;;;;;;;33.17;45.41;98214.22;4857053;29;20073;-71
2022/10/04 13:09:01;;;;;;;29.27;9.60;;;;;;;33.15;45.20;98222.16;4878409;29;20064;-70
2022/10/04 13:12:00;;;;;;;31.52;10.95;;;;;;;33.12;46.46;98217.38;4889657;29;20283;-71
2022/10/04 13:15:13;;;;;;;33.17;10.98;;;;;;;33.13;45.86;98218.94;4872395;29;20695;-71
2022/10/04 13:18:33;;;;;;;26.33;9.32;;;;;;;33.10;47.28;98220.50;4888936;29;20059;-75
2022/10/04 13:21:51;;;;;;;30.48;10.43;;;;;;;33.03;48.39;98225.94;4873099;29;20049;-71
2022/10/04 13:25:08;;;;;;;25.17;9.88;;;;;;;33.06;46.78;98221.63;4866104;29;20080;-71
2022/10/04 13:28:04;;;;;;;23.70;10.65;;;;;;;32.99;48.79;98227.09;4893673;29;20075;-72
2022/10/04 13:31:09;;;;;;;23.15;10.65;;;;;;;32.86;50.06;98227.28;4886200;29;20055;-72
2022/10/04 13:34:08;;;;;;;40.30;12.32;;;;;;;32.86;49.14;98227.28;4889394;29;20252;-73
2022/10/04 13:37:12;;;;;;;30.65;11.13;;;;;;;32.82;50.01;98231.19;4889498;29;20148;-73
2022/10/04 13:40:22;;;;;;;26.13;11.43;;;;;;;32.78;50.11;98233.91;4879524;29;20151;-73
2022/10/04 13:43:39;;;;;;;31.30;11.30;;;;;;;32.76;49.71;98244.63;4898689;29;20135;-73
2022/10/04 13:46:31;;;;;;;38.78;11.98;;;;;;;32.72;49.39;98243.75;4900849;29;20083;-73
2022/10/04 13:49:32;;;;;;;34.58;11.55;;;;;;;32.65;50.55;98247.22;4880651;29;20052;-73
2022/10/04 13:59:00;;;;;;;33.45;13.00;;;;;;;32.54;50.75;98263.69;4891227;29;20057;-73
2022/10/04 14:02:33;;;;;;;39.67;14.20;;;;;;;32.55;50.54;98261.72;4889452;29;20048;-74
2022/10/04 14:05:45;;;;;;;31.45;12.52;;;;;;;32.47;51.11;98263.56;4889228;29;20052;-72
2022/10/04 14:09:00;;;;;;;33.97;13.30;;;;;;;32.37;51.77;98270.56;4889866;29;20052;-75
2022/10/04 14:12:11;;;;;;;;;;;;;;;32.31;52.39;98285.94;4891500;29;20421;-74
2022/10/04 14:15:31;;;;;;;36.67;14.25;;;;;;;32.16;52.81;98284.84;4875099;29;19927;-71